createdAt,value
2023-09-27T00:00:01.755Z,89.8
2023-09-27T00:01:01.857Z,89.8
2023-09-27T00:02:01.575Z,90.5
2023-09-27T00:03:01.685Z,90.5
2023-09-27T00:04:01.284Z,91.0
2023-09-27T00:05:01.773Z,92.4
2023-09-27T00:06:01.706Z,91.6
2023-09-27T00:07:01.266Z,92.1
2023-09-27T00:08:01.387Z,93.5
2023-09-27T00:09:01.587Z,92.9
2023-09-27T00:10:02.411Z,94.0
2023-09-27T00:11:01.748Z,93.2
2023-09-27T00:12:01.243Z,93.4
2023-09-27T00:13:01.521Z,93.6
2023-09-27T00:14:01.665Z,94.0
2023-09-27T00:15:02.145Z,94.0
2023-09-27T00:16:01.293Z,95.0
2023-09-27T00:17:01.303Z,96.0
2023-09-27T00:18:01.824Z,96.6
2023-09-27T00:19:01.340Z,97.1
2023-09-27T00:20:01.668Z,97.2
2023-09-27T00:21:01.249Z,97.0
2023-09-27T00:22:01.620Z,97.5
2023-09-27T00:23:01.817Z,99.0
2023-09-27T00:24:01.363Z,99.8
2023-09-27T00:25:01.653Z,100.0
2023-09-27T00:26:01.335Z,100.0
2023-09-27T00:27:01.659Z,100.0
2023-09-27T00:28:01.734Z,100.0
2023-09-27T00:29:01.317Z,100.0
2023-09-27T00:30:01.698Z,100.0
2023-09-27T00:31:01.329Z,100.0
2023-09-27T00:32:01.331Z,100.0
2023-09-27T00:33:01.772Z,100.0
2023-09-27T00:34:01.641Z,100.0
2023-09-27T00:35:02.000Z,100.0
2023-09-27T00:36:01.297Z,100.0
2023-09-27T00:37:01.726Z,100.0
2023-09-27T00:38:02.536Z,100.0
2023-09-27T00:39:01.239Z,100.0
2023-09-27T00:40:01.293Z,100.0
2023-09-27T00:41:01.258Z,100.0
2023-09-27T00:42:01.612Z,100.0
2023-09-27T00:43:01.644Z,100.0
2023-09-27T00:44:01.688Z,100.0
2023-09-27T00:45:01.789Z,100.0
2023-09-27T00:46:04.214Z,100.0
2023-09-27T00:47:04.014Z,100.0
2023-09-27T00:48:01.718Z,100.0
2023-09-27T00:49:01.934Z,100.0
2023-09-27T00:50:02.290Z,100.0
2023-09-27T00:51:03.877Z,100.0
2023-09-27T00:52:02.157Z,100.0
2023-09-27T00:53:01.492Z,100.0
2023-09-27T00:54:02.255Z,100.0
2023-09-27T00:55:01.752Z,100.0
2023-09-27T00:56:01.798Z,100.0
2023-09-27T00:57:03.081Z,100.0
2023-09-27T00:58:01.957Z,100.0
2023-09-27T00:59:02.688Z,100.0
2023-09-27T01:00:01.997Z,100.0
2023-09-27T01:01:01.263Z,100.0
2023-09-27T01:02:01.365Z,100.0
2023-09-27T01:03:04.159Z,100.0
2023-09-27T01:04:02.612Z,100.0
2023-09-27T01:05:01.317Z,100.0
2023-09-27T01:06:02.378Z,100.0
2023-09-27T01:07:01.273Z,100.0
2023-09-27T01:08:02.596Z,100.0
2023-09-27T01:09:01.655Z,100.0
2023-09-27T01:10:01.305Z,100.0
2023-09-27T01:11:03.960Z,100.0
2023-09-27T01:12:01.315Z,100.0
2023-09-27T01:13:02.466Z,100.0
2023-09-27T01:14:01.741Z,100.0
2023-09-27T01:15:01.879Z,100.0
2023-09-27T01:16:01.328Z,100.0
2023-09-27T01:17:08.710Z,100.0
2023-09-27T01:18:02.460Z,100.0
2023-09-27T01:19:01.927Z,100.0
2023-09-27T01:20:01.645Z,100.0
2023-09-27T01:21:01.757Z,100.0
2023-09-27T01:22:01.642Z,100.0
2023-09-27T01:23:03.003Z,100.0
2023-09-27T01:24:01.605Z,100.0
2023-09-27T01:25:05.219Z,100.0
2023-09-27T01:26:02.460Z,100.0
2023-09-27T01:27:04.666Z,100.0
2023-09-27T01:28:02.804Z,100.0
2023-09-27T01:29:01.298Z,100.0
2023-09-27T01:30:01.965Z,100.0
2023-09-27T01:31:01.302Z,100.0
2023-09-27T01:32:01.621Z,100.0
2023-09-27T01:33:02.598Z,100.0
2023-09-27T01:34:01.688Z,100.0
2023-09-27T01:35:01.361Z,100.0
2023-09-27T01:36:01.624Z,100.0
2023-09-27T01:37:01.610Z,100.0
2023-09-27T01:38:02.131Z,100.0
2023-09-27T01:39:01.617Z,100.0
2023-09-27T01:40:01.719Z,100.0
2023-09-27T01:41:01.467Z,100.0
2023-09-27T01:42:01.664Z,100.0
2023-09-27T01:43:03.636Z,100.0
2023-09-27T01:44:01.281Z,100.0
2023-09-27T01:45:01.604Z,100.0
2023-09-27T01:46:01.594Z,100.0
2023-09-27T01:47:01.660Z,100.0
2023-09-27T01:48:02.226Z,100.0
2023-09-27T01:49:01.594Z,100.0
2023-09-27T01:50:01.337Z,100.0
2023-09-27T01:51:01.606Z,100.0
2023-09-27T01:52:01.468Z,100.0
2023-09-27T01:53:02.308Z,100.0
2023-09-27T01:54:01.585Z,100.0
2023-09-27T01:55:01.616Z,100.0
2023-09-27T01:56:02.252Z,100.0
2023-09-27T01:57:01.651Z,100.0
2023-09-27T01:58:02.679Z,100.0
2023-09-27T01:59:01.786Z,100.0
2023-09-27T02:00:01.401Z,100.0
2023-09-27T02:01:01.347Z,100.0
2023-09-27T02:02:01.696Z,100.0
2023-09-27T02:03:02.640Z,100.0
2023-09-27T02:04:01.673Z,100.0
2023-09-27T02:05:01.806Z,100.0
2023-09-27T02:06:01.649Z,100.0
2023-09-27T02:07:01.237Z,100.0
2023-09-27T02:08:01.338Z,100.0
2023-09-27T02:09:01.622Z,100.0
2023-09-27T02:10:01.337Z,100.0
2023-09-27T02:11:01.276Z,100.0
2023-09-27T02:12:01.364Z,100.0
2023-09-27T02:13:01.642Z,100.0
2023-09-27T02:14:01.571Z,100.0
2023-09-27T02:15:01.611Z,100.0
2023-09-27T02:16:01.702Z,100.0
2023-09-27T02:17:01.287Z,100.0
2023-09-27T02:18:01.262Z,100.0
2023-09-27T02:19:01.357Z,100.0
2023-09-27T02:20:01.436Z,100.0
2023-09-27T02:21:01.302Z,100.0
2023-09-27T02:22:01.589Z,100.0
2023-09-27T02:23:01.681Z,100.0
2023-09-27T02:24:01.233Z,100.0
2023-09-27T02:25:01.841Z,100.0
2023-09-27T02:26:01.311Z,100.0
2023-09-27T02:27:01.285Z,100.0
2023-09-27T02:28:01.280Z,100.0
2023-09-27T02:29:01.339Z,100.0
2023-09-27T02:30:01.275Z,100.0
2023-09-27T02:31:01.291Z,100.0
2023-09-27T02:32:01.308Z,100.0
2023-09-27T02:33:01.295Z,100.0
2023-09-27T02:34:01.549Z,100.0
2023-09-27T02:35:01.853Z,100.0
2023-09-27T02:36:01.570Z,100.0
2023-09-27T02:37:01.928Z,100.0
2023-09-27T02:38:01.327Z,100.0
2023-09-27T02:39:01.290Z,100.0
2023-09-27T02:40:01.300Z,100.0
2023-09-27T02:41:01.640Z,100.0
2023-09-27T02:42:01.607Z,100.0
2023-09-27T02:43:01.260Z,100.0
2023-09-27T02:44:01.309Z,100.0
2023-09-27T02:45:01.312Z,100.0
2023-09-27T02:46:01.871Z,100.0
2023-09-27T02:47:01.546Z,100.0
2023-09-27T02:48:01.868Z,100.0
2023-09-27T02:49:01.460Z,100.0
2023-09-27T02:50:01.835Z,100.0
2023-09-27T02:51:01.336Z,100.0
2023-09-27T02:52:01.732Z,100.0
2023-09-27T02:53:01.322Z,100.0
2023-09-27T02:54:01.646Z,100.0
2023-09-27T02:55:01.875Z,100.0
2023-09-27T02:56:02.043Z,100.0
2023-09-27T02:57:01.284Z,100.0
2023-09-27T02:58:01.447Z,100.0
2023-09-27T02:59:01.291Z,100.0
2023-09-27T03:00:01.592Z,100.0
2023-09-27T03:01:01.296Z,100.0
2023-09-27T03:02:01.688Z,100.0
2023-09-27T03:03:01.760Z,100.0
2023-09-27T03:04:01.673Z,100.0
2023-09-27T03:05:02.504Z,100.0
2023-09-27T03:06:01.558Z,100.0
2023-09-27T03:07:01.346Z,100.0
2023-09-27T03:08:01.688Z,100.0
2023-09-27T03:09:01.924Z,100.0
2023-09-27T03:10:01.357Z,100.0
2023-09-27T03:11:02.929Z,100.0
2023-09-27T03:12:01.723Z,100.0
2023-09-27T03:13:01.239Z,100.0
2023-09-27T03:14:01.924Z,100.0
2023-09-27T03:15:01.572Z,100.0
2023-09-27T03:16:01.315Z,100.0
2023-09-27T03:17:01.832Z,100.0
2023-09-27T03:18:01.453Z,100.0
2023-09-27T03:19:01.750Z,100.0
2023-09-27T03:20:01.893Z,100.0
2023-09-27T03:21:01.285Z,100.0
2023-09-27T03:22:01.615Z,100.0
2023-09-27T03:23:01.300Z,100.0
2023-09-27T03:24:01.561Z,100.0
2023-09-27T03:25:01.698Z,100.0
2023-09-27T03:26:01.379Z,100.0
2023-09-27T03:27:01.608Z,100.0
2023-09-27T03:28:01.637Z,100.0
2023-09-27T03:29:01.699Z,100.0
2023-09-27T03:30:01.726Z,100.0
2023-09-27T03:31:03.202Z,100.0
2023-09-27T03:32:01.353Z,100.0
2023-09-27T03:33:01.304Z,100.0
2023-09-27T03:34:01.561Z,100.0
2023-09-27T03:35:01.284Z,100.0
2023-09-27T03:36:03.250Z,100.0
2023-09-27T03:37:01.325Z,100.0
2023-09-27T03:38:01.290Z,100.0
2023-09-27T03:39:01.596Z,100.0
2023-09-27T03:40:01.742Z,100.0
2023-09-27T03:41:01.288Z,100.0
2023-09-27T03:42:01.536Z,100.0
2023-09-27T03:43:01.672Z,100.0
2023-09-27T03:44:01.387Z,100.0
2023-09-27T03:45:01.619Z,100.0
2023-09-27T03:46:01.735Z,100.0
2023-09-27T03:47:01.926Z,100.0
2023-09-27T03:48:01.809Z,100.0
2023-09-27T03:49:01.585Z,100.0
2023-09-27T03:50:01.321Z,100.0
2023-09-27T03:51:01.643Z,100.0
2023-09-27T03:52:01.237Z,100.0
2023-09-27T03:53:01.444Z,100.0
2023-09-27T03:54:01.315Z,100.0
2023-09-27T03:55:01.373Z,100.0
2023-09-27T03:56:01.312Z,100.0
2023-09-27T03:57:01.619Z,100.0
2023-09-27T03:58:01.271Z,100.0
2023-09-27T03:59:01.676Z,100.0
2023-09-27T04:00:02.114Z,100.0
2023-09-27T04:01:01.280Z,100.0
2023-09-27T04:02:01.311Z,100.0
2023-09-27T04:03:01.775Z,100.0
2023-09-27T04:04:01.482Z,100.0
2023-09-27T04:05:01.754Z,100.0
2023-09-27T04:06:01.229Z,100.0
2023-09-27T04:07:01.713Z,100.0
2023-09-27T04:08:03.448Z,100.0
2023-09-27T04:09:01.267Z,100.0
2023-09-27T04:10:01.729Z,100.0
2023-09-27T04:11:02.813Z,100.0
2023-09-27T04:12:01.568Z,100.0
2023-09-27T04:13:01.328Z,100.0
2023-09-27T04:14:01.664Z,100.0
2023-09-27T04:15:02.103Z,100.0
2023-09-27T04:16:01.665Z,100.0
2023-09-27T04:17:01.666Z,100.0
2023-09-27T04:18:01.736Z,100.0
2023-09-27T04:19:01.275Z,100.0
2023-09-27T04:20:01.286Z,100.0
2023-09-27T04:21:06.322Z,100.0
2023-09-27T04:22:01.639Z,100.0
2023-09-27T04:23:01.326Z,100.0
2023-09-27T04:24:01.606Z,100.0
2023-09-27T04:25:01.348Z,100.0
2023-09-27T04:26:02.049Z,100.0
2023-09-27T04:27:01.646Z,100.0
2023-09-27T04:28:01.733Z,100.0
2023-09-27T04:29:01.747Z,100.0
2023-09-27T04:30:01.690Z,100.0
2023-09-27T04:31:01.702Z,100.0
2023-09-27T04:32:01.375Z,100.0
2023-09-27T04:33:01.349Z,100.0
2023-09-27T04:34:01.730Z,100.0
2023-09-27T04:35:01.681Z,100.0
2023-09-27T04:36:01.309Z,100.0
2023-09-27T04:37:01.373Z,100.0
2023-09-27T04:38:01.335Z,100.0
2023-09-27T04:39:01.296Z,100.0
2023-09-27T04:40:01.823Z,100.0
2023-09-27T04:41:01.672Z,100.0
2023-09-27T04:42:01.645Z,100.0
2023-09-27T04:43:01.694Z,100.0
2023-09-27T04:44:01.620Z,100.0
2023-09-27T04:45:01.241Z,100.0
2023-09-27T04:46:01.336Z,100.0
2023-09-27T04:47:01.262Z,100.0
2023-09-27T04:48:01.871Z,100.0
2023-09-27T04:49:01.846Z,100.0
2023-09-27T04:50:01.714Z,100.0
2023-09-27T04:51:02.477Z,100.0
2023-09-27T04:52:01.245Z,100.0
2023-09-27T04:53:01.714Z,100.0
2023-09-27T04:54:01.299Z,100.0
2023-09-27T04:55:01.847Z,100.0
2023-09-27T04:56:02.197Z,100.0
2023-09-27T04:57:01.281Z,100.0
2023-09-27T04:58:01.235Z,100.0
2023-09-27T04:59:01.901Z,100.0
2023-09-27T05:00:01.322Z,100.0
2023-09-27T05:01:01.658Z,100.0
2023-09-27T05:02:01.381Z,100.0
2023-09-27T05:03:01.308Z,100.0
2023-09-27T05:04:01.269Z,100.0
2023-09-27T05:05:01.364Z,100.0
2023-09-27T05:06:01.297Z,100.0
2023-09-27T05:07:01.230Z,100.0
2023-09-27T05:08:02.147Z,100.0
2023-09-27T05:09:01.609Z,100.0
2023-09-27T05:10:01.965Z,100.0
2023-09-27T05:11:01.716Z,100.0
2023-09-27T05:12:01.687Z,100.0
2023-09-27T05:13:01.703Z,100.0
2023-09-27T05:14:01.677Z,100.0
2023-09-27T05:15:01.594Z,100.0
2023-09-27T05:16:01.388Z,100.0
2023-09-27T05:17:01.627Z,100.0
2023-09-27T05:18:01.712Z,100.0
2023-09-27T05:19:01.296Z,100.0
2023-09-27T05:20:01.703Z,100.0
2023-09-27T05:21:04.630Z,100.0
2023-09-27T05:22:01.743Z,100.0
2023-09-27T05:23:01.736Z,100.0
2023-09-27T05:24:01.655Z,100.0
2023-09-27T05:25:01.303Z,100.0
2023-09-27T05:26:01.736Z,100.0
2023-09-27T05:27:01.297Z,100.0
2023-09-27T05:28:01.669Z,100.0
2023-09-27T05:29:02.837Z,100.0
2023-09-27T05:30:01.942Z,100.0
2023-09-27T05:31:01.491Z,100.0
2023-09-27T05:32:01.977Z,100.0
2023-09-27T05:33:01.566Z,100.0
2023-09-27T05:34:01.247Z,100.0
2023-09-27T05:35:01.606Z,100.0
2023-09-27T05:36:02.708Z,100.0
2023-09-27T05:37:01.651Z,100.0
2023-09-27T05:38:01.858Z,100.0
2023-09-27T05:39:02.768Z,100.0
2023-09-27T05:40:01.673Z,100.0
2023-09-27T05:41:01.627Z,100.0
2023-09-27T05:42:01.671Z,100.0
2023-09-27T05:43:02.759Z,100.0
2023-09-27T05:44:01.588Z,100.0
2023-09-27T05:45:01.651Z,100.0
2023-09-27T05:46:01.613Z,100.0
2023-09-27T05:47:01.368Z,100.0
2023-09-27T05:48:01.912Z,100.0
2023-09-27T05:49:01.250Z,100.0
2023-09-27T05:50:01.332Z,100.0
2023-09-27T05:51:01.273Z,100.0
2023-09-27T05:52:01.305Z,100.0
2023-09-27T05:53:01.486Z,100.0
2023-09-27T05:54:01.942Z,100.0
2023-09-27T05:55:01.305Z,100.0
2023-09-27T05:56:01.691Z,100.0
2023-09-27T05:57:01.306Z,100.0
2023-09-27T05:58:02.499Z,100.0
2023-09-27T05:59:01.687Z,100.0
2023-09-27T06:00:01.932Z,100.0
2023-09-27T06:01:01.824Z,100.0
2023-09-27T06:02:01.337Z,100.0
2023-09-27T06:03:01.375Z,100.0
2023-09-27T06:04:01.391Z,100.0
2023-09-27T06:05:01.565Z,100.0
2023-09-27T06:06:02.002Z,100.0
2023-09-27T06:07:01.569Z,100.0
2023-09-27T06:08:01.355Z,100.0
2023-09-27T06:09:01.300Z,100.0
2023-09-27T06:10:01.790Z,100.0
2023-09-27T06:11:01.607Z,100.0
2023-09-27T06:12:01.290Z,100.0
2023-09-27T06:13:01.295Z,100.0
2023-09-27T06:14:01.796Z,100.0
2023-09-27T06:15:01.263Z,100.0
2023-09-27T06:16:01.912Z,100.0
2023-09-27T06:17:01.892Z,100.0
2023-09-27T06:18:01.702Z,100.0
2023-09-27T06:19:01.287Z,100.0
2023-09-27T06:20:04.064Z,100.0
2023-09-27T06:21:01.235Z,100.0
2023-09-27T06:22:03.904Z,100.0
2023-09-27T06:23:01.267Z,100.0
2023-09-27T06:24:01.270Z,100.0
2023-09-27T06:25:01.253Z,100.0
2023-09-27T06:26:02.759Z,100.0
2023-09-27T06:27:01.821Z,100.0
2023-09-27T06:28:02.239Z,100.0
2023-09-27T06:29:01.337Z,100.0
2023-09-27T06:30:01.494Z,100.0
2023-09-27T06:31:01.315Z,100.0
2023-09-27T06:32:01.635Z,100.0
2023-09-27T06:33:01.694Z,100.0
2023-09-27T06:34:01.639Z,100.0
2023-09-27T06:35:01.823Z,100.0
2023-09-27T06:36:01.617Z,100.0
2023-09-27T06:37:01.570Z,100.0
2023-09-27T06:38:01.507Z,100.0
2023-09-27T06:39:01.613Z,100.0
2023-09-27T06:40:01.472Z,100.0
2023-09-27T06:41:01.329Z,100.0
2023-09-27T06:42:01.597Z,100.0
2023-09-27T06:43:01.925Z,100.0
2023-09-27T06:44:01.270Z,100.0
2023-09-27T06:45:01.651Z,100.0
2023-09-27T06:46:07.692Z,100.0
2023-09-27T06:47:01.637Z,100.0
2023-09-27T06:48:01.327Z,100.0
2023-09-27T06:49:02.574Z,100.0
2023-09-27T06:50:02.350Z,100.0
2023-09-27T06:51:01.284Z,100.0
2023-09-27T06:52:01.270Z,100.0
2023-09-27T06:53:19.664Z,100.0
2023-09-27T06:54:01.621Z,100.0
2023-09-27T06:55:01.242Z,100.0
2023-09-27T06:56:01.382Z,100.0
2023-09-27T06:57:01.607Z,100.0
2023-09-27T06:58:01.621Z,100.0
2023-09-27T06:59:01.633Z,100.0
2023-09-27T07:00:02.054Z,100.0
2023-09-27T07:01:01.635Z,100.0
2023-09-27T07:02:01.632Z,100.0
2023-09-27T07:03:01.726Z,100.0
2023-09-27T07:04:01.743Z,100.0
2023-09-27T07:05:01.713Z,100.0
2023-09-27T07:06:01.635Z,100.0
2023-09-27T07:07:01.603Z,100.0
2023-09-27T07:08:01.839Z,100.0
2023-09-27T07:09:01.667Z,100.0
2023-09-27T07:10:01.607Z,100.0
2023-09-27T07:11:05.093Z,100.0
2023-09-27T07:12:01.333Z,100.0
2023-09-27T07:13:01.306Z,100.0
2023-09-27T07:14:01.244Z,100.0
2023-09-27T07:15:01.980Z,100.0
2023-09-27T07:16:03.093Z,100.0
2023-09-27T07:17:02.109Z,100.0
2023-09-27T07:18:01.704Z,100.0
2023-09-27T07:19:01.635Z,100.0
2023-09-27T07:20:01.321Z,100.0
2023-09-27T07:21:01.623Z,100.0
2023-09-27T07:22:01.520Z,100.0
2023-09-27T07:23:02.138Z,100.0
2023-09-27T07:24:01.600Z,100.0
2023-09-27T07:25:01.652Z,100.0
2023-09-27T07:26:01.298Z,100.0
2023-09-27T07:27:01.618Z,100.0
2023-09-27T07:28:02.223Z,100.0
2023-09-27T07:29:01.333Z,100.0
2023-09-27T07:30:01.599Z,100.0
2023-09-27T07:31:01.630Z,100.0
2023-09-27T07:32:01.765Z,100.0
2023-09-27T07:33:02.119Z,100.0
2023-09-27T07:34:01.655Z,100.0
2023-09-27T07:35:01.452Z,100.0
2023-09-27T07:36:01.247Z,100.0
2023-09-27T07:37:01.602Z,100.0
2023-09-27T07:38:01.821Z,100.0
2023-09-27T07:39:01.262Z,100.0
2023-09-27T07:40:01.297Z,100.0
2023-09-27T07:41:01.510Z,100.0
2023-09-27T07:42:01.294Z,100.0
2023-09-27T07:43:01.583Z,100.0
2023-09-27T07:44:02.008Z,100.0
2023-09-27T07:45:01.647Z,100.0
2023-09-27T07:46:01.507Z,100.0
2023-09-27T07:47:01.238Z,100.0
2023-09-27T07:48:01.391Z,100.0
2023-09-27T07:49:01.257Z,100.0
2023-09-27T07:50:01.784Z,100.0
2023-09-27T07:51:01.851Z,100.0
2023-09-27T07:52:01.552Z,100.0
2023-09-27T07:53:01.751Z,100.0
2023-09-27T07:54:01.761Z,100.0
2023-09-27T07:55:01.638Z,100.0
2023-09-27T07:56:01.660Z,100.0
2023-09-27T07:57:01.602Z,100.0
2023-09-27T07:58:01.578Z,100.0
2023-09-27T07:59:01.602Z,100.0
2023-09-27T08:00:01.647Z,100.0
2023-09-27T08:01:01.350Z,100.0
2023-09-27T08:02:01.644Z,100.0
2023-09-27T08:03:02.102Z,100.0
2023-09-27T08:04:01.310Z,100.0
2023-09-27T08:05:01.628Z,100.0
2023-09-27T08:06:01.743Z,100.0
2023-09-27T08:07:01.311Z,100.0
2023-09-27T08:08:01.287Z,100.0
2023-09-27T08:09:02.016Z,100.0
2023-09-27T08:10:19.167Z,100.0
2023-09-27T08:11:01.265Z,100.0
2023-09-27T08:12:01.258Z,100.0
2023-09-27T08:13:01.252Z,100.0
2023-09-27T08:14:01.612Z,100.0
2023-09-27T08:15:01.762Z,100.0
2023-09-27T08:16:01.583Z,100.0
2023-09-27T08:17:01.678Z,100.0
2023-09-27T08:18:01.499Z,100.0
2023-09-27T08:19:01.573Z,100.0
2023-09-27T08:20:01.979Z,100.0
2023-09-27T08:21:01.598Z,100.0
2023-09-27T08:22:01.240Z,100.0
2023-09-27T08:23:02.269Z,100.0
2023-09-27T08:24:01.610Z,100.0
2023-09-27T08:25:01.353Z,100.0
2023-09-27T08:26:01.741Z,100.0
2023-09-27T08:27:01.604Z,100.0
2023-09-27T08:28:01.560Z,100.0
2023-09-27T08:29:01.673Z,100.0
2023-09-27T08:30:01.409Z,100.0
2023-09-27T08:31:01.658Z,100.0
2023-09-27T08:32:01.378Z,100.0
2023-09-27T08:33:01.773Z,100.0
2023-09-27T08:34:01.296Z,100.0
2023-09-27T08:35:01.925Z,100.0
2023-09-27T08:36:01.240Z,100.0
2023-09-27T08:37:01.566Z,100.0
2023-09-27T08:38:01.244Z,100.0
2023-09-27T08:39:02.070Z,100.0
2023-09-27T08:40:01.754Z,100.0
2023-09-27T08:41:01.314Z,100.0
2023-09-27T08:42:02.358Z,100.0
2023-09-27T08:43:02.097Z,100.0
2023-09-27T08:44:02.488Z,100.0
2023-09-27T08:45:05.057Z,100.0
2023-09-27T08:46:01.346Z,100.0
2023-09-27T08:47:01.793Z,100.0
2023-09-27T08:48:01.361Z,100.0
2023-09-27T08:49:02.110Z,100.0
2023-09-27T08:50:02.340Z,100.0
2023-09-27T08:51:01.864Z,100.0
2023-09-27T08:52:01.650Z,100.0
2023-09-27T08:53:01.392Z,100.0
2023-09-27T08:54:01.678Z,100.0
2023-09-27T08:55:01.316Z,100.0
2023-09-27T08:56:02.682Z,100.0
2023-09-27T08:57:01.971Z,100.0
2023-09-27T08:58:01.757Z,100.0
2023-09-27T08:59:03.161Z,100.0
2023-09-27T09:00:01.870Z,100.0
2023-09-27T09:01:03.604Z,100.0
2023-09-27T09:02:03.430Z,100.0
2023-09-27T09:03:03.344Z,100.0
2023-09-27T09:04:02.285Z,100.0
2023-09-27T09:05:01.477Z,100.0
2023-09-27T09:06:02.103Z,100.0
2023-09-27T09:07:01.607Z,100.0
2023-09-27T09:08:02.378Z,100.0
2023-09-27T09:09:04.638Z,100.0
2023-09-27T09:10:01.245Z,100.0
2023-09-27T09:11:01.429Z,100.0
2023-09-27T09:12:02.517Z,100.0
2023-09-27T09:13:01.985Z,100.0
2023-09-27T09:14:01.569Z,100.0
2023-09-27T09:15:01.233Z,100.0
2023-09-27T09:16:13.712Z,100.0
2023-09-27T09:17:01.608Z,100.0
2023-09-27T09:18:02.044Z,100.0
2023-09-27T09:19:26.076Z,100.0
2023-09-27T09:20:04.735Z,100.0
2023-09-27T09:21:01.263Z,100.0
2023-09-27T09:22:04.175Z,100.0
2023-09-27T09:23:01.553Z,100.0
2023-09-27T09:24:19.011Z,100.0
2023-09-27T09:25:01.289Z,100.0
2023-09-27T09:26:03.616Z,100.0
2023-09-27T09:27:07.365Z,100.0
2023-09-27T09:28:02.668Z,100.0
2023-09-27T09:29:01.952Z,100.0
2023-09-27T09:30:01.691Z,100.0
2023-09-27T09:31:01.624Z,100.0
2023-09-27T09:32:06.516Z,100.0
2023-09-27T09:33:01.859Z,100.0
2023-09-27T09:34:02.560Z,100.0
2023-09-27T09:35:01.224Z,100.0
2023-09-27T09:36:01.295Z,100.0
2023-09-27T09:37:01.306Z,100.0
2023-09-27T09:38:03.765Z,100.0
2023-09-27T09:39:05.327Z,100.0
2023-09-27T09:40:08.582Z,100.0
2023-09-27T09:41:01.874Z,100.0
2023-09-27T09:42:01.676Z,100.0
2023-09-27T09:43:01.658Z,100.0
2023-09-27T09:44:17.146Z,100.0
2023-09-27T09:45:03.180Z,100.0
2023-09-27T09:46:02.689Z,100.0
2023-09-27T09:47:09.992Z,100.0
2023-09-27T09:48:01.623Z,100.0
2023-09-27T09:49:01.308Z,100.0
2023-09-27T09:50:01.839Z,100.0
2023-09-27T09:51:03.874Z,100.0
2023-09-27T09:52:03.619Z,100.0
2023-09-27T09:53:01.772Z,100.0
2023-09-27T09:54:07.486Z,100.0
2023-09-27T09:55:16.087Z,100.0
2023-09-27T09:56:28.207Z,100.0
2023-09-27T09:57:11.488Z,100.0
2023-09-27T09:58:09.866Z,100.0
2023-09-27T09:59:05.137Z,100.0
2023-09-27T10:00:04.946Z,100.0
2023-09-27T10:01:02.975Z,100.0
2023-09-27T10:02:11.899Z,100.0
2023-09-27T10:03:05.080Z,100.0
2023-09-27T10:04:03.746Z,100.0
2023-09-27T10:05:03.332Z,100.0
2023-09-27T10:06:02.184Z,100.0
2023-09-27T10:07:02.046Z,100.0
2023-09-27T10:08:01.981Z,100.0
2023-09-27T10:09:02.590Z,100.0
2023-09-27T10:10:01.978Z,100.0
2023-09-27T10:11:02.773Z,100.0
2023-09-27T10:12:02.152Z,100.0
2023-09-27T10:13:03.961Z,100.0
2023-09-27T10:14:02.517Z,100.0
2023-09-27T10:15:02.981Z,100.0
2023-09-27T10:16:02.658Z,100.0
2023-09-27T10:17:01.811Z,100.0
2023-09-27T10:18:22.270Z,100.0
2023-09-27T10:19:01.320Z,100.0
2023-09-27T10:20:04.673Z,100.0
2023-09-27T10:21:02.049Z,100.0
2023-09-27T10:22:03.322Z,100.0
2023-09-27T10:23:09.425Z,100.0
2023-09-27T10:24:02.101Z,100.0
2023-09-27T10:25:01.297Z,100.0
2023-09-27T10:26:16.863Z,100.0
2023-09-27T10:27:01.718Z,100.0
2023-09-27T10:28:06.173Z,100.0
2023-09-27T10:29:10.175Z,100.0
2023-09-27T10:30:01.290Z,100.0
2023-09-27T10:31:05.433Z,100.0
2023-09-27T10:32:17.779Z,100.0
2023-09-27T10:33:22.279Z,100.0
2023-09-27T10:34:01.261Z,100.0
2023-09-27T10:35:15.941Z,100.0
2023-09-27T10:36:22.220Z,100.0
2023-09-27T10:37:10.434Z,100.0
2023-09-27T10:38:01.440Z,100.0
2023-09-27T10:39:03.784Z,100.0
2023-09-27T10:40:19.972Z,100.0
2023-09-27T10:41:01.274Z,100.0
2023-09-27T10:42:01.686Z,100.0
2023-09-27T10:43:01.335Z,100.0
2023-09-27T10:44:02.597Z,100.0
2023-09-27T10:45:09.028Z,100.0
2023-09-27T10:46:02.030Z,100.0
2023-09-27T10:47:03.394Z,100.0
2023-09-27T10:48:14.093Z,100.0
2023-09-27T10:49:01.263Z,100.0
2023-09-27T10:50:01.528Z,100.0
2023-09-27T10:51:01.245Z,100.0
2023-09-27T10:52:06.954Z,100.0
2023-09-27T10:53:01.708Z,100.0
2023-09-27T10:54:06.244Z,100.0
2023-09-27T10:55:09.463Z,100.0
2023-09-27T10:56:01.681Z,100.0
2023-09-27T10:57:02.647Z,100.0
2023-09-27T10:58:01.652Z,100.0
2023-09-27T10:59:01.624Z,100.0
2023-09-27T11:00:03.093Z,100.0
2023-09-27T11:01:01.586Z,100.0
2023-09-27T11:02:01.780Z,100.0
2023-09-27T11:03:16.349Z,100.0
2023-09-27T11:04:03.176Z,100.0
2023-09-27T11:05:01.605Z,100.0
2023-09-27T11:06:09.788Z,100.0
2023-09-27T11:07:02.367Z,100.0
2023-09-27T11:08:01.614Z,100.0
2023-09-27T11:09:04.707Z,100.0
2023-09-27T11:10:01.564Z,100.0
2023-09-27T11:11:01.667Z,100.0
2023-09-27T11:12:01.555Z,100.0
2023-09-27T11:13:04.944Z,100.0
2023-09-27T11:14:01.628Z,100.0
2023-09-27T11:15:01.337Z,100.0
2023-09-27T11:16:07.566Z,100.0
2023-09-27T11:17:15.724Z,100.0
2023-09-27T11:18:01.813Z,100.0
2023-09-27T11:19:01.460Z,100.0
2023-09-27T11:20:10.757Z,100.0
2023-09-27T11:21:07.881Z,100.0
2023-09-27T11:22:01.605Z,100.0
2023-09-27T11:23:01.826Z,100.0
2023-09-27T11:24:02.308Z,100.0
2023-09-27T11:25:01.386Z,100.0
2023-09-27T11:26:03.573Z,100.0
2023-09-27T11:27:01.287Z,100.0
2023-09-27T11:28:02.222Z,100.0
2023-09-27T11:29:02.686Z,100.0
2023-09-27T11:30:01.612Z,100.0
2023-09-27T11:31:01.239Z,100.0
2023-09-27T11:32:01.908Z,100.0
2023-09-27T11:33:04.657Z,100.0
2023-09-27T11:34:12.542Z,100.0
2023-09-27T11:35:01.586Z,100.0
2023-09-27T11:36:04.961Z,100.0
2023-09-27T11:37:01.313Z,100.0
2023-09-27T11:38:06.776Z,100.0
2023-09-27T11:39:01.666Z,100.0
2023-09-27T11:40:01.266Z,100.0
2023-09-27T11:41:05.426Z,100.0
2023-09-27T11:42:01.321Z,100.0
2023-09-27T11:43:01.685Z,100.0
2023-09-27T11:44:15.695Z,100.0
2023-09-27T11:45:02.552Z,100.0
2023-09-27T11:46:01.343Z,100.0
2023-09-27T11:47:04.653Z,100.0
2023-09-27T11:48:01.688Z,100.0
2023-09-27T11:49:08.105Z,100.0
2023-09-27T11:50:01.305Z,100.0
2023-09-27T11:51:02.200Z,100.0
2023-09-27T11:52:02.061Z,100.0
2023-09-27T11:53:01.263Z,100.0
2023-09-27T11:54:01.256Z,100.0
2023-09-27T11:55:01.876Z,100.0
2023-09-27T11:56:01.659Z,100.0
2023-09-27T11:57:01.275Z,100.0
2023-09-27T11:58:01.783Z,100.0
2023-09-27T11:59:03.403Z,100.0
2023-09-27T12:00:01.773Z,100.0
2023-09-27T12:01:01.679Z,100.0
2023-09-27T12:02:09.204Z,100.0
2023-09-27T12:03:01.649Z,100.0
2023-09-27T12:04:03.066Z,100.0
2023-09-27T12:05:02.337Z,100.0
2023-09-27T12:06:01.900Z,100.0
2023-09-27T12:07:01.779Z,100.0
2023-09-27T12:08:01.327Z,100.0
2023-09-27T12:09:02.443Z,100.0
2023-09-27T12:10:01.891Z,100.0
2023-09-27T12:11:01.843Z,100.0
2023-09-27T12:12:01.246Z,100.0
2023-09-27T12:13:01.288Z,100.0
2023-09-27T12:14:01.627Z,100.0
2023-09-27T12:15:01.286Z,100.0
2023-09-27T12:16:01.626Z,100.0
2023-09-27T12:17:01.358Z,100.0
2023-09-27T12:18:01.422Z,100.0
2023-09-27T12:19:02.136Z,100.0
2023-09-27T12:20:01.266Z,100.0
2023-09-27T12:21:01.698Z,100.0
2023-09-27T12:22:01.279Z,100.0
2023-09-27T12:23:01.635Z,100.0
2023-09-27T12:24:02.232Z,100.0
2023-09-27T12:25:01.628Z,100.0
2023-09-27T12:26:01.289Z,100.0
2023-09-27T12:27:01.666Z,100.0
2023-09-27T12:28:01.562Z,100.0
2023-09-27T12:29:01.575Z,100.0
2023-09-27T12:30:01.697Z,100.0
2023-09-27T12:31:01.323Z,100.0
2023-09-27T12:32:01.689Z,100.0
2023-09-27T12:33:01.956Z,100.0
2023-09-27T12:34:01.634Z,100.0
2023-09-27T12:35:01.226Z,100.0
2023-09-27T12:36:02.078Z,100.0
2023-09-27T12:37:01.317Z,100.0
2023-09-27T12:38:01.879Z,100.0
2023-09-27T12:39:01.826Z,100.0
2023-09-27T12:40:01.494Z,100.0
2023-09-27T12:41:01.305Z,100.0
2023-09-27T12:42:01.269Z,100.0
2023-09-27T12:43:01.914Z,100.0
2023-09-27T12:44:01.328Z,100.0
2023-09-27T12:45:01.774Z,100.0
2023-09-27T12:46:02.148Z,100.0
2023-09-27T12:47:01.618Z,100.0
2023-09-27T12:48:01.343Z,100.0
2023-09-27T12:49:01.641Z,100.0
2023-09-27T12:50:04.004Z,100.0
2023-09-27T12:51:01.557Z,100.0
2023-09-27T12:52:01.547Z,100.0
2023-09-27T12:53:02.511Z,100.0